KPOU/POU METAR and TAF weather

Enter ICAO airport designator
Station Type Date Time Source
KPOU METAR 2023/10/02 09:53 UTC NOAA

KPOU 020953Z AUTO 00000KT 9SM CLR 12/11 A3021 RMK AO2 SLP225 T01170111


Station Type Date Time Source
KPOU Decoded METAR 2023/10/02 09:53 UTC NOAA

POUGHKEEPSIE DUTCHESS CTY, NY, United States (KPOU) 41-38N 073-53W 46M
Oct 02, 2023 - 05:53 AM EDT / 2023.10.02 0953 UTC
Wind: Calm:0
Visibility: 9 mile(s):0
Sky conditions: clear
Temperature: 53.1 F (11.7 C)
Dew Point: 52.0 F (11.1 C)
Relative Humidity: 96%
Pressure (altimeter): 30.21 in. Hg (1023 hPa)
ob: KPOU 020953Z AUTO 00000KT 9SM CLR 12/11 A3021 RMK AO2 SLP225 T01170111
cycle: 10

Station Type Date Time Source
KPOU TAF 2023/10/02 09:39 UTC NOAA

TAF
AMD KPOU 020836Z 0209/0306 00000KT P6SM SKC
TEMPO 0209/0212 1/2SM FG VV002
FM021300 01003KT P6SM SKC
FM030400 00000KT 2SM BR SKC

Example: see airport list